Time;durP1;ratioP1;P1;durP2;ratioP2;P2;SDS_P1;SDS_P2;PMS_P1;PMS_P2;Temp;Humidity;BMP_temperature;BMP_pressure;BME280_temperature;BME280_humidity;BME280_pressure;Samples;Min_cycle;Max_cycle;Signal;HPM_P1;HPM_P2
2024/01/22 00:01:23;;;;;;;9.93;2.50;;;;;;;7.28;75.51;100919.50;7401621;19;20490;-58
2024/01/22 00:03:54;;;;;;;7.05;2.63;;;;;;;7.24;75.68;100917.97;7396987;19;20019;-58
2024/01/22 00:06:24;;;;;;;9.13;3.30;;;;;;;7.23;75.45;100892.56;7397110;19;20014;-58
2024/01/22 00:08:55;;;;;;;10.38;2.83;;;;;;;7.25;75.44;100871.41;7395435;19;20022;-58
2024/01/22 00:11:25;;;;;;;9.60;2.88;;;;;;;7.31;74.94;100858.72;7393009;19;20375;-57
2024/01/22 00:13:56;;;;;;;5.90;2.55;;;;;;;7.35;74.89;100834.84;7396265;19;20371;-58
2024/01/22 00:16:26;;;;;;;6.55;2.22;;;;;;;7.33;74.92;100840.22;7397974;19;20022;-54
2024/01/22 00:18:57;;;;;;;7.55;2.60;;;;;;;7.37;75.22;100836.47;7396622;19;20361;-55
2024/01/22 00:21:29;;;;;;;6.47;2.38;;;;;;;7.41;75.10;100816.91;7394400;19;20392;-56
2024/01/22 00:24:00;;;;;;;7.57;2.42;;;;;;;7.39;74.91;100816.13;7396365;19;20014;-55
2024/01/22 00:26:38;;;;;;;8.57;2.53;;;;;;;7.40;74.91;100838.06;7395799;19;20035;-58
2024/01/22 00:29:09;;;;;;;7.00;2.47;;;;;;;7.44;75.15;100831.66;7396606;19;20015;-56
2024/01/22 00:31:41;;;;;;;7.50;2.53;;;;;;;7.42;75.19;100818.59;7395822;19;20047;-57
2024/01/22 00:34:11;;;;;;;7.50;2.42;;;;;;;7.47;75.21;100828.84;7396184;19;20015;-55
2024/01/22 00:36:42;;;;;;;8.73;2.40;;;;;;;7.49;75.25;100809.38;7396330;19;20010;-56
2024/01/22 00:39:14;;;;;;;7.53;2.20;;;;;;;7.59;74.84;100793.84;7395925;19;20022;-59
2024/01/22 00:41:47;;;;;;;5.68;2.40;;;;;;;7.56;75.00;100773.81;7392840;19;20018;-59
2024/01/22 00:44:18;;;;;;;6.50;2.30;;;;;;;7.63;75.15;100749.72;7395262;19;20019;-57
2024/01/22 00:46:49;;;;;;;6.22;2.03;;;;;;;7.65;74.74;100787.38;7395539;19;20085;-57
2024/01/22 00:49:19;;;;;;;9.00;2.42;;;;;;;7.64;75.12;100809.41;7394773;19;20018;-57
2024/01/22 00:51:50;;;;;;;6.25;2.15;;;;;;;7.63;75.21;100766.41;7395381;19;20035;-57
2024/01/22 00:54:20;;;;;;;6.82;2.40;;;;;;;7.71;74.89;100727.22;7394110;19;20094;-58
2024/01/22 00:56:53;;;;;;;5.50;2.28;;;;;;;7.70;74.94;100769.47;7395365;19;20019;-58
2024/01/22 00:59:22;;;;;;;4.53;1.83;;;;;;;7.63;75.61;100765.53;7395357;19;20043;-55
2024/01/22 01:01:53;;;;;;;6.32;2.05;;;;;;;7.72;75.51;100784.28;7394617;19;20014;-57
2024/01/22 01:04:23;;;;;;;4.55;2.15;;;;;;;7.75;75.27;100796.44;7395800;19;20014;-56
2024/01/22 01:06:54;;;;;;;7.55;2.20;;;;;;;7.71;75.37;100758.03;7396063;19;20024;-56
2024/01/22 01:09:24;;;;;;;6.65;1.85;;;;;;;7.76;75.96;100783.13;7395647;19;20015;-57
2024/01/22 01:11:54;;;;;;;6.97;2.10;;;;;;;7.71;76.57;100784.38;7393125;19;20039;-56
2024/01/22 01:14:25;;;;;;;5.95;2.00;;;;;;;7.71;76.96;100758.03;7394010;19;20503;-59
2024/01/22 01:16:55;;;;;;;4.47;1.83;;;;;;;7.69;77.09;100762.53;7395670;19;20042;-59
2024/01/22 01:19:24;;;;;;;7.15;1.90;;;;;;;7.63;77.62;100739.16;7394936;19;20393;-56
2024/01/22 01:21:55;;;;;;;5.18;1.75;;;;;;;7.70;77.78;100720.25;7394309;19;20050;-58
2024/01/22 01:24:25;;;;;;;5.30;2.22;;;;;;;7.70;78.37;100706.22;7394782;19;20021;-58
2024/01/22 01:26:56;;;;;;;6.63;2.20;;;;;;;7.69;78.34;100686.09;7393479;19;20010;-57
2024/01/22 01:29:26;;;;;;;5.25;2.15;;;;;;;7.70;78.31;100679.88;7394888;19;20045;-58
2024/01/22 01:31:57;;;;;;;7.65;2.20;;;;;;;7.75;78.22;100664.63;7393988;19;20018;-61
2024/01/22 01:34:30;;;;;;;7.05;1.85;;;;;;;7.70;78.16;100664.06;7395695;19;20014;-62
2024/01/22 01:37:02;;;;;;;4.97;1.95;;;;;;;7.73;78.45;100662.06;7395311;19;20441;-61
2024/01/22 01:39:37;;;;;;;4.72;1.80;;;;;;;7.82;77.84;100650.97;7394572;19;20018;-62
2024/01/22 01:42:07;;;;;;;6.50;1.90;;;;;;;7.81;77.60;100636.06;7392524;19;20043;-62
2024/01/22 01:44:38;;;;;;;5.60;2.00;;;;;;;7.76;78.04;100648.72;7394722;19;20014;-62
2024/01/22 01:47:09;;;;;;;6.20;2.03;;;;;;;7.77;78.16;100633.72;7394579;19;20032;-59
2024/01/22 01:49:40;;;;;;;5.43;1.88;;;;;;;7.86;77.71;100641.06;7394030;19;20047;-61
2024/01/22 01:52:11;;;;;;;5.50;1.88;;;;;;;7.85;77.83;100628.81;7393415;19;20031;-59
2024/01/22 01:54:45;;;;;;;6.00;1.80;;;;;;;7.92;77.67;100637.19;7394292;19;20022;-61
2024/01/22 01:57:16;;;;;;;5.00;2.03;;;;;;;7.91;77.26;100619.69;7394161;19;20132;-60
2024/01/22 01:59:47;;;;;;;4.68;1.88;;;;;;;7.97;77.07;100604.28;7392085;19;20019;-61
2024/01/22 02:02:17;;;;;;;6.72;1.85;;;;;;;8.04;76.87;100617.91;7393294;19;20023;-61
2024/01/22 02:04:48;;;;;;;6.50;1.80;;;;;;;8.06;76.75;100621.31;7393843;19;20019;-60
2024/01/22 02:07:18;;;;;;;5.22;1.75;;;;;;;8.09;76.66;100609.69;7393736;19;20022;-60
2024/01/22 02:09:51;;;;;;;4.20;1.88;;;;;;;8.05;76.88;100631.03;7392744;19;20027;-58
2024/01/22 02:12:21;;;;;;;6.70;2.00;;;;;;;8.10;76.62;100598.22;7393301;19;20038;-59
2024/01/22 02:14:51;;;;;;;7.40;2.00;;;;;;;8.10;76.64;100599.06;7394239;19;20039;-59
2024/01/22 02:17:22;;;;;;;4.82;2.00;;;;;;;8.14;76.53;100639.28;7393327;19;20013;-57
2024/01/22 02:19:52;;;;;;;5.40;1.95;;;;;;;8.18;76.20;100630.22;7391778;19;20045;-57
2024/01/22 02:22:23;;;;;;;4.57;1.83;;;;;;;8.19;76.29;100639.81;7389808;19;20502;-58
2024/01/22 02:24:53;;;;;;;5.05;1.80;;;;;;;8.16;76.14;100651.41;7393818;19;20018;-59
2024/01/22 02:27:23;;;;;;;6.53;1.80;;;;;;;8.24;76.12;100648.25;7394259;19;20081;-58
2024/01/22 02:29:54;;;;;;;5.22;1.40;;;;;;;8.23;76.12;100644.78;7393822;19;20019;-58
2024/01/22 02:32:24;;;;;;;7.88;1.92;;;;;;;8.18;76.34;100643.41;7393833;19;20032;-57
2024/01/22 02:34:55;;;;;;;5.53;1.98;;;;;;;8.24;75.99;100635.94;7394120;19;20014;-55
2024/01/22 02:37:25;;;;;;;3.83;1.70;;;;;;;8.27;75.86;100619.03;7394547;19;20027;-60
2024/01/22 02:39:56;;;;;;;3.78;1.67;;;;;;;8.29;75.61;100609.25;7393221;19;20428;-58
2024/01/22 02:42:28;;;;;;;5.00;1.70;;;;;;;8.37;75.54;100595.53;7393559;19;20011;-57
2024/01/22 02:45:00;;;;;;;4.78;1.60;;;;;;;8.38;75.44;100595.47;7394132;19;20014;-58
2024/01/22 02:47:39;;;;;;;4.18;1.77;;;;;;;8.30;75.55;100572.19;7392515;19;20036;-59
2024/01/22 02:50:10;;;;;;;6.57;1.75;;;;;;;8.33;75.83;100571.16;7393068;19;20022;-55
2024/01/22 02:52:42;;;;;;;4.90;1.77;;;;;;;8.37;75.69;100569.16;7391989;19;20018;-57
2024/01/22 02:55:12;;;;;;;6.15;2.20;;;;;;;8.41;75.55;100566.22;7391343;19;20360;-59
2024/01/22 02:57:44;;;;;;;7.03;1.80;;;;;;;8.45;75.21;100565.06;7391570;19;20022;-59
2024/01/22 03:00:15;;;;;;;5.47;1.60;;;;;;;8.42;75.22;100544.16;7390265;19;20086;-58
2024/01/22 03:02:45;;;;;;;4.18;1.52;;;;;;;8.50;75.16;100555.03;7391749;19;20047;-58
2024/01/22 03:05:17;;;;;;;3.20;1.38;;;;;;;8.52;75.07;100550.53;7390189;19;20044;-57
2024/01/22 03:07:45;;;;;;;3.80;1.48;;;;;;;8.61;74.61;100546.41;7391811;19;20046;-57
2024/01/22 03:10:15;;;;;;;6.45;1.70;;;;;;;8.57;74.79;100555.47;7390289;19;20031;-58
2024/01/22 03:12:45;;;;;;;4.28;1.60;;;;;;;8.62;74.46;100550.72;7389924;19;20378;-58
2024/01/22 03:15:16;;;;;;;5.03;1.63;;;;;;;8.60;74.61;100520.13;7391301;19;20105;-59
2024/01/22 03:17:44;;;;;;;4.10;1.63;;;;;;;8.71;74.36;100526.34;7391016;19;20042;-58
2024/01/22 03:20:14;;;;;;;5.43;1.52;;;;;;;8.70;74.56;100506.19;7389603;19;20022;-58
2024/01/22 03:22:46;;;;;;;6.65;1.50;;;;;;;8.68;75.07;100509.88;7389764;19;20018;-58
2024/01/22 03:25:16;;;;;;;4.43;1.98;;;;;;;8.71;75.14;100477.97;7391368;19;20023;-58
2024/01/22 03:27:45;;;;;;;4.30;1.80;;;;;;;8.67;75.70;100471.22;7391079;19;20028;-58
2024/01/22 03:30:16;;;;;;;5.10;1.80;;;;;;;8.66;76.00;100440.47;7389901;19;20513;-58
2024/01/22 03:32:44;;;;;;;3.85;1.55;;;;;;;8.58;76.65;100453.38;7391061;19;20022;-58
2024/01/22 03:35:15;;;;;;;3.97;1.60;;;;;;;8.68;77.13;100436.78;7391187;19;20034;-58
2024/01/22 03:37:44;;;;;;;3.80;1.40;;;;;;;8.65;77.14;100438.81;7398398;19;20014;-57
2024/01/22 03:40:15;;;;;;;5.28;1.50;;;;;;;8.62;77.64;100442.50;7397634;19;20036;-57
2024/01/22 03:42:43;;;;;;;5.28;1.80;;;;;;;8.60;78.22;100441.78;7398029;19;20022;-58
2024/01/22 03:45:14;;;;;;;4.45;1.83;;;;;;;8.56;78.05;100439.47;7397602;19;20014;-59
2024/01/22 03:47:44;;;;;;;5.07;1.85;;;;;;;8.61;77.97;100414.41;7396100;19;20014;-58
2024/01/22 03:50:15;;;;;;;4.15;1.60;;;;;;;8.63;77.88;100407.25;7396225;19;20010;-59
2024/01/22 03:52:45;;;;;;;4.68;1.73;;;;;;;8.68;77.52;100402.47;7397740;19;20025;-59
2024/01/22 03:55:15;;;;;;;4.80;1.80;;;;;;;8.71;77.75;100404.06;7396164;19;20026;-58
2024/01/22 03:57:44;;;;;;;3.70;1.70;;;;;;;8.70;77.84;100368.03;7397343;19;20010;-58
2024/01/22 04:00:16;;;;;;;3.30;1.55;;;;;;;8.79;77.18;100364.75;7396391;19;20022;-59
2024/01/22 04:02:44;;;;;;;5.20;1.70;;;;;;;8.77;77.47;100353.44;7397259;19;20094;-59
2024/01/22 04:05:14;;;;;;;7.03;2.03;;;;;;;8.69;78.08;100321.50;7397233;19;20089;-59
2024/01/22 04:07:46;;;;;;;4.05;1.80;;;;;;;8.69;79.28;100316.22;7397314;19;20784;-58
2024/01/22 04:10:15;;;;;;;3.70;1.70;;;;;;;8.62;80.18;100297.34;7395201;19;20051;-59
2024/01/22 04:12:46;;;;;;;5.50;2.10;;;;;;;8.59;80.28;100302.03;7396577;19;20373;-58
2024/01/22 04:15:16;;;;;;;6.43;1.63;;;;;;;8.64;81.04;100297.25;7397294;19;20019;-59
2024/01/22 04:17:45;;;;;;;6.70;1.83;;;;;;;8.60;81.03;100304.53;7396750;19;20086;-59
2024/01/22 04:20:16;;;;;;;4.82;1.90;;;;;;;8.56;81.90;100287.25;7395102;19;20043;-60
2024/01/22 04:22:44;;;;;;;5.05;1.70;;;;;;;8.53;82.58;100296.22;7397000;19;20043;-60
2024/01/22 04:25:15;;;;;;;2.47;1.42;;;;;;;8.54;82.48;100273.28;7396191;19;20014;-59
2024/01/22 04:27:45;;;;;;;4.38;1.90;;;;;;;8.58;82.48;100289.75;7397014;19;20019;-60
2024/01/22 04:30:15;;;;;;;4.97;1.60;;;;;;;8.63;82.35;100279.72;7394710;19;20022;-60
2024/01/22 04:32:47;;;;;;;5.38;1.63;;;;;;;8.59;82.59;100299.38;7396794;19;20022;-59
2024/01/22 04:35:18;;;;;;;4.53;1.55;;;;;;;8.64;82.34;100290.16;7396102;19;20035;-58
2024/01/22 04:37:48;;;;;;;3.70;1.50;;;;;;;8.62;82.68;100251.63;7395825;19;20370;-59
2024/01/22 04:40:18;;;;;;;4.32;1.73;;;;;;;8.63;82.20;100250.69;7394456;19;20023;-58
2024/01/22 04:42:46;;;;;;;4.22;1.52;;;;;;;8.68;82.15;100261.75;7396069;19;20100;-57
2024/01/22 04:45:17;;;;;;;3.10;1.45;;;;;;;8.77;81.94;100268.97;7395697;19;20062;-57
2024/01/22 04:47:45;;;;;;;6.32;1.60;;;;;;;8.73;81.89;100236.69;7396029;19;20074;-59
2024/01/22 04:50:15;;;;;;;4.20;1.75;;;;;;;8.74;81.59;100246.31;7393722;19;20029;-59
2024/01/22 04:52:46;;;;;;;4.22;1.40;;;;;;;8.74;82.01;100254.22;7395965;19;20486;-55
2024/01/22 04:55:16;;;;;;;5.22;1.30;;;;;;;8.83;81.76;100257.97;7395882;19;20690;-58
2024/01/22 04:57:52;;;;;;;3.45;1.58;;;;;;;8.86;81.65;100236.63;7395505;19;20060;-58
2024/01/22 05:00:22;;;;;;;5.57;1.33;;;;;;;8.84;81.93;100241.16;7393464;19;20057;-57
2024/01/22 05:02:52;;;;;;;4.65;1.50;;;;;;;8.79;82.57;100230.94;7395356;19;20043;-58
2024/01/22 05:05:26;;;;;;;2.30;1.30;;;;;;;8.85;82.92;100231.44;7395605;19;20022;-56
2024/01/22 05:07:56;;;;;;;4.13;1.30;;;;;;;8.86;82.56;100231.34;7394994;19;20014;-57
2024/01/22 05:10:27;;;;;;;2.92;1.58;;;;;;;8.82;83.12;100227.25;7392259;19;20085;-56
2024/01/22 05:12:58;;;;;;;2.33;1.20;;;;;;;8.89;82.86;100215.28;7394818;19;20025;-59
2024/01/22 05:15:36;;;;;;;3.92;1.20;;;;;;;8.91;82.99;100223.06;7395028;19;20028;-54
2024/01/22 05:18:07;;;;;;;3.33;1.55;;;;;;;8.85;83.42;100213.78;7393655;19;20025;-56
2024/01/22 05:20:38;;;;;;;3.72;1.35;;;;;;;8.89;83.00;100207.34;7393494;19;20015;-60
2024/01/22 05:23:09;;;;;;;3.30;1.20;;;;;;;8.92;83.09;100199.19;7394385;19;20029;-58
2024/01/22 05:25:39;;;;;;;3.25;1.30;;;;;;;8.93;83.56;100185.03;7394744;19;20018;-59
2024/01/22 05:28:10;;;;;;;4.10;1.20;;;;;;;8.99;82.90;100181.06;7392961;19;20088;-58
2024/01/22 05:30:40;;;;;;;4.20;1.48;;;;;;;9.01;83.62;100180.00;7392461;19;20019;-59
2024/01/22 05:33:10;;;;;;;5.10;1.52;;;;;;;9.05;83.75;100164.78;7394424;19;20754;-57
2024/01/22 05:35:41;;;;;;;2.63;1.00;;;;;;;9.05;83.85;100177.97;7394353;19;20021;-58
2024/01/22 05:38:12;;;;;;;2.65;1.10;;;;;;;9.08;83.99;100164.53;7394918;19;20486;-54
2024/01/22 05:40:43;;;;;;;3.22;1.20;;;;;;;9.08;83.65;100142.53;7392341;19;20018;-52
2024/01/22 05:43:14;;;;;;;2.60;1.10;;;;;;;9.12;83.72;100179.19;7394151;19;20393;-56
2024/01/22 05:45:44;;;;;;;3.13;1.08;;;;;;;9.22;83.97;100174.84;7393980;19;20429;-52
2024/01/22 05:48:14;;;;;;;2.10;1.02;;;;;;;9.17;83.95;100161.19;7392311;19;20018;-55
2024/01/22 05:50:44;;;;;;;1.90;1.10;;;;;;;9.15;84.18;100147.22;7392515;19;20042;-53
2024/01/22 05:53:15;;;;;;;2.35;0.98;;;;;;;9.21;84.02;100152.06;7394280;19;20022;-53
2024/01/22 05:55:45;;;;;;;2.00;0.85;;;;;;;9.31;83.86;100141.63;7393546;19;20015;-54
2024/01/22 05:58:22;;;;;;;1.25;0.90;;;;;;;9.35;83.62;100174.75;7391974;19;20487;-57
2024/01/22 06:00:53;;;;;;;2.47;1.27;;;;;;;9.26;84.79;100154.31;7391884;19;20487;-57
2024/01/22 06:03:23;;;;;;;3.28;1.02;;;;;;;9.36;84.54;100125.41;7393525;19;20026;-56
2024/01/22 06:05:54;;;;;;;2.10;0.95;;;;;;;9.39;84.32;100143.66;7393088;19;20370;-55
2024/01/22 06:08:24;;;;;;;3.75;0.98;;;;;;;9.42;84.93;100138.09;7393225;19;20018;-59
2024/01/22 06:10:54;;;;;;;2.45;0.90;;;;;;;9.47;84.77;100142.09;7391059;19;20015;-54
2024/01/22 06:13:25;;;;;;;3.53;0.90;;;;;;;9.46;85.04;100140.41;7391180;19;20039;-59
2024/01/22 06:15:55;;;;;;;1.05;0.82;;;;;;;9.45;85.06;100130.78;7393122;19;20092;-57
2024/01/22 06:18:26;;;;;;;1.88;0.90;;;;;;;9.48;84.61;100125.25;7393273;19;20015;-59
2024/01/22 06:20:56;;;;;;;2.00;1.00;;;;;;;9.49;84.77;100142.78;7391038;19;20014;-61
2024/01/22 06:23:26;;;;;;;2.90;1.00;;;;;;;9.53;84.98;100141.59;7392702;19;20011;-59
2024/01/22 06:25:56;;;;;;;2.25;1.10;;;;;;;9.57;85.48;100133.41;7392472;19;20017;-60
2024/01/22 06:28:28;;;;;;;2.05;1.00;;;;;;;9.48;85.62;100122.63;7391241;19;20367;-60
2024/01/22 06:30:58;;;;;;;2.45;1.15;;;;;;;9.52;85.91;100141.72;7390537;19;20405;-61
2024/01/22 06:33:32;;;;;;;;;;;;;;;9.50;86.24;100133.91;7392825;19;20107;-60
2024/01/22 06:36:02;;;;;;;5.72;0.90;;;;;;;9.49;85.83;100118.16;7392112;19;19947;-61
2024/01/22 06:38:37;;;;;;;2.70;1.15;;;;;;;9.56;85.74;100116.72;7390852;19;20015;-61
2024/01/22 06:41:11;;;;;;;3.30;1.00;;;;;;;9.70;85.04;100140.25;7388888;19;20043;-63
2024/01/22 06:43:42;;;;;;;1.33;0.82;;;;;;;9.69;85.29;100140.38;7392148;19;20039;-57
2024/01/22 06:46:12;;;;;;;2.03;0.88;;;;;;;9.66;85.48;100119.47;7390757;19;20018;-58
2024/01/22 06:48:43;;;;;;;3.17;1.25;;;;;;;9.69;85.84;100138.59;7390678;19;20018;-54
2024/01/22 06:51:15;;;;;;;1.90;1.30;;;;;;;9.61;86.50;100138.34;7387906;19;20021;-54
2024/01/22 06:53:51;;;;;;;2.42;1.15;;;;;;;9.64;86.48;100122.22;7390485;19;20030;-51
2024/01/22 06:56:22;;;;;;;2.05;1.10;;;;;;;9.66;86.44;100119.47;7390365;19;20015;-53
2024/01/22 06:58:53;;;;;;;4.28;1.17;;;;;;;9.66;86.20;100114.19;7390732;19;20384;-53
2024/01/22 07:01:27;;;;;;;2.80;1.42;;;;;;;9.73;85.90;100115.38;7388074;19;20018;-52
2024/01/22 07:03:58;;;;;;;1.80;1.20;;;;;;;9.72;86.71;100113.69;7391711;19;20015;-52
2024/01/22 07:06:35;;;;;;;1.98;1.20;;;;;;;9.71;86.78;100128.72;7391292;19;20380;-52
2024/01/22 07:09:06;;;;;;;2.55;1.20;;;;;;;9.70;86.95;100110.34;7389984;19;20035;-53
2024/01/22 07:11:38;;;;;;;1.98;1.10;;;;;;;9.72;86.79;100108.41;7390993;19;20015;-52
2024/01/22 07:14:09;;;;;;;1.55;1.05;;;;;;;9.75;87.34;100124.03;7398115;19;20026;-52
2024/01/22 07:16:40;;;;;;;4.50;2.03;;;;;;;9.76;87.10;100113.31;7397554;19;20094;-53
2024/01/22 07:19:10;;;;;;;3.28;1.95;;;;;;;9.77;87.41;100133.53;7397334;19;20018;-52
2024/01/22 07:21:41;;;;;;;1.83;1.10;;;;;;;9.79;87.64;100138.66;7395453;19;20018;-52
2024/01/22 07:24:11;;;;;;;1.85;1.13;;;;;;;9.82;87.21;100151.66;7397240;19;20018;-56
2024/01/22 07:26:42;;;;;;;2.88;1.30;;;;;;;9.74;88.06;100160.19;7399003;19;20018;-56
2024/01/22 07:29:13;;;;;;;4.40;1.15;;;;;;;9.85;87.66;100153.22;7398595;19;20028;-56
2024/01/22 07:31:43;;;;;;;3.30;1.38;;;;;;;9.87;87.84;100151.28;7395725;19;20578;-55
2024/01/22 07:34:14;;;;;;;2.15;1.30;;;;;;;9.85;87.74;100146.13;7398417;19;20014;-57
2024/01/22 07:36:44;;;;;;;2.75;1.30;;;;;;;9.88;87.42;100166.16;7398127;19;20019;-59
2024/01/22 07:39:16;;;;;;;1.70;1.15;;;;;;;9.91;87.58;100147.41;7397980;19;20023;-59
2024/01/22 07:41:46;;;;;;;4.50;1.38;;;;;;;9.94;87.48;100140.06;7395174;19;20014;-59
2024/01/22 07:44:17;;;;;;;2.22;1.50;;;;;;;9.93;87.38;100148.16;7398088;19;20035;-58
2024/01/22 07:46:49;;;;;;;4.80;1.40;;;;;;;9.99;87.17;100145.81;7398216;19;20023;-59
2024/01/22 07:49:19;;;;;;;4.10;1.35;;;;;;;9.98;87.32;100140.69;7397582;19;20031;-60
2024/01/22 07:51:50;;;;;;;2.53;1.27;;;;;;;9.97;87.18;100133.72;7396303;19;20038;-58
2024/01/22 07:54:20;;;;;;;4.25;1.30;;;;;;;10.00;87.38;100136.94;7397688;19;20018;-59
2024/01/22 07:56:50;;;;;;;4.82;1.50;;;;;;;10.00;87.27;100155.47;7397862;19;20026;-60
2024/01/22 07:59:21;;;;;;;2.50;1.30;;;;;;;10.00;87.60;100165.22;7397195;19;20635;-60
2024/01/22 08:01:52;;;;;;;5.95;1.45;;;;;;;10.04;88.08;100150.78;7396627;19;20010;-59
2024/01/22 08:04:22;;;;;;;7.07;2.22;;;;;;;10.07;87.56;100160.25;7397575;19;20025;-60
2024/01/22 08:06:53;;;;;;;2.83;1.30;;;;;;;10.07;87.97;100161.06;7396183;19;20467;-57
2024/01/22 08:09:23;;;;;;;6.63;1.50;;;;;;;10.09;87.81;100160.97;7396909;19;20039;-57
2024/01/22 08:11:54;;;;;;;5.63;1.30;;;;;;;10.07;88.04;100160.25;7395590;19;20017;-57
2024/01/22 08:14:24;;;;;;;4.18;1.42;;;;;;;10.12;88.02;100168.66;7397505;19;20025;-57
2024/01/22 08:16:55;;;;;;;5.85;1.45;;;;;;;10.17;87.60;100161.19;7397298;19;20015;-57
2024/01/22 08:19:26;;;;;;;3.08;1.30;;;;;;;10.17;87.47;100169.13;7396599;19;20137;-56
2024/01/22 08:21:56;;;;;;;3.60;1.30;;;;;;;10.26;86.91;100171.03;7394964;19;20590;-57
2024/01/22 08:24:26;;;;;;;3.30;1.20;;;;;;;10.33;86.59;100174.88;7396368;19;20010;-59
2024/01/22 08:26:57;;;;;;;4.38;1.30;;;;;;;10.42;86.16;100170.66;7395119;19;20034;-57
2024/01/22 08:29:30;;;;;;;7.75;1.30;;;;;;;10.36;86.15;100161.38;7396162;19;20400;-58
2024/01/22 08:32:00;;;;;;;4.20;1.30;;;;;;;10.47;85.60;100171.94;7395540;19;20018;-57
2024/01/22 08:34:38;;;;;;;4.35;1.20;;;;;;;10.61;85.06;100170.78;7396725;19;20025;-56
2024/01/22 08:37:09;;;;;;;4.30;1.30;;;;;;;10.59;85.17;100182.47;7395482;19;20515;-53
2024/01/22 08:39:40;;;;;;;3.88;1.20;;;;;;;10.59;85.22;100175.38;7395234;19;20010;-55
2024/01/22 08:42:11;;;;;;;4.35;1.20;;;;;;;10.66;84.80;100181.00;7393607;19;20092;-55
2024/01/22 08:44:41;;;;;;;5.32;1.23;;;;;;;10.72;84.55;100183.13;7395967;19;20015;-51
2024/01/22 08:47:11;;;;;;;5.28;1.38;;;;;;;10.83;84.06;100196.31;7393902;19;20022;-54
2024/01/22 08:49:42;;;;;;;2.42;0.95;;;;;;;10.85;83.96;100183.78;7395000;19;20027;-54
2024/01/22 08:52:12;;;;;;;4.40;1.23;;;;;;;10.85;83.93;100183.78;7394162;19;20015;-56
2024/01/22 08:54:43;;;;;;;4.55;1.38;;;;;;;10.95;84.08;100191.78;7395911;19;20055;-57
2024/01/22 08:57:13;;;;;;;6.07;0.90;;;;;;;11.01;84.23;100196.56;7394465;19;20024;-60
2024/01/22 08:59:43;;;;;;;5.75;1.00;;;;;;;11.07;84.27;100214.63;7394877;19;20018;-60
2024/01/22 09:02:14;;;;;;;3.00;0.80;;;;;;;11.07;83.77;100192.59;7394741;19;20022;-61
2024/01/22 09:04:44;;;;;;;8.13;1.05;;;;;;;11.05;84.30;100221.84;7395561;19;20018;-60
2024/01/22 09:07:15;;;;;;;4.93;0.82;;;;;;;11.04;84.99;100198.97;7395206;19;20025;-61
2024/01/22 09:09:45;;;;;;;4.03;1.10;;;;;;;11.03;85.40;100197.31;7392542;19;20030;-60
2024/01/22 09:12:18;;;;;;;3.30;1.00;;;;;;;11.06;85.67;100196.19;7394147;19;20022;-60
2024/01/22 09:14:52;;;;;;;4.88;1.20;;;;;;;11.00;86.14;100196.72;7395042;19;20530;-60
2024/01/22 09:17:23;;;;;;;6.53;1.30;;;;;;;11.00;86.27;100196.72;7394646;19;20050;-60
2024/01/22 09:19:53;;;;;;;5.78;1.10;;;;;;;11.06;86.10;100198.81;7394481;19;20550;-60
2024/01/22 09:22:25;;;;;;;2.92;0.70;;;;;;;11.13;85.58;100202.63;7393703;19;20384;-59
2024/01/22 09:24:55;;;;;;;3.60;1.30;;;;;;;11.04;85.62;100198.97;7394425;19;20019;-58
2024/01/22 09:27:27;;;;;;;7.32;1.35;;;;;;;11.05;85.91;100215.69;7393874;19;20015;-56
2024/01/22 09:29:58;;;;;;;4.40;0.93;;;;;;;10.91;86.88;100208.91;7392235;19;20023;-57
2024/01/22 09:32:35;;;;;;;3.85;1.20;;;;;;;10.90;87.48;100201.94;7391361;19;20026;-58
2024/01/22 09:35:07;;;;;;;4.05;0.93;;;;;;;10.82;87.85;100212.34;7390737;19;20015;-59
2024/01/22 09:37:42;;;;;;;3.03;0.90;;;;;;;10.84;88.38;100208.59;7392050;19;20014;-58
2024/01/22 09:40:13;;;;;;;3.67;0.98;;;;;;;10.97;87.74;100209.25;7390708;19;20475;-57
2024/01/22 09:42:55;;;;;;;5.05;0.90;;;;;;;11.02;87.16;100221.25;7392015;19;20039;-60
2024/01/22 09:45:25;;;;;;;3.08;0.90;;;;;;;10.97;87.53;100208.41;7391805;19;20014;-58
2024/01/22 09:47:57;;;;;;;5.63;1.10;;;;;;;11.01;87.18;100216.94;7392326;19;20018;-58
2024/01/22 09:50:33;;;;;;;3.78;1.17;;;;;;;11.06;86.71;100217.38;7390781;19;20051;-59
2024/01/22 09:53:10;;;;;;;5.80;1.08;;;;;;;11.12;86.70;100199.16;7391228;19;20019;-60
2024/01/22 09:55:41;;;;;;;6.05;1.00;;;;;;;11.09;86.97;100219.78;7392078;19;20010;-59
2024/01/22 09:58:20;;;;;;;6.07;1.10;;;;;;;11.05;87.17;100215.69;7391909;19;20018;-60
2024/01/22 10:00:52;;;;;;;4.82;1.20;;;;;;;11.02;87.08;100214.16;7392076;19;20027;-59
2024/01/22 10:03:23;;;;;;;7.68;1.30;;;;;;;11.03;87.85;100220.28;7394509;19;20030;-56
2024/01/22 10:05:54;;;;;;;6.68;1.25;;;;;;;11.12;87.51;100219.53;7394981;19;20018;-56
2024/01/22 10:08:25;;;;;;;8.70;1.20;;;;;;;11.15;87.51;100237.81;7394536;19;20085;-56
2024/01/22 10:10:55;;;;;;;6.40;1.35;;;;;;;11.23;87.00;100240.66;7393418;19;20111;-55
2024/01/22 10:13:25;;;;;;;6.30;1.30;;;;;;;11.08;88.02;100237.47;7390544;19;20178;-57
2024/01/22 10:16:08;;;;;;;8.98;1.45;;;;;;;11.21;88.03;100238.13;7391037;19;20020;-57
2024/01/22 10:18:54;;;;;;;7.93;1.30;;;;;;;11.21;87.96;100243.41;7390894;19;20014;-57
2024/01/22 10:21:25;;;;;;;8.48;1.67;;;;;;;11.14;88.56;100257.31;7387182;19;20015;-56
2024/01/22 10:24:07;;;;;;;7.57;1.85;;;;;;;11.09;89.45;100264.81;7391156;19;20019;-54
2024/01/22 10:26:41;;;;;;;9.48;1.40;;;;;;;10.98;89.65;100263.06;7391188;19;20038;-57
2024/01/22 10:29:18;;;;;;;8.95;1.60;;;;;;;10.92;90.69;100259.13;7390652;19;20086;-54
2024/01/22 10:31:56;;;;;;;7.15;1.58;;;;;;;10.97;90.09;100266.69;7388080;19;20022;-56
2024/01/22 10:34:41;;;;;;;5.25;1.33;;;;;;;10.97;89.84;100270.16;7388235;19;20035;-57
2024/01/22 10:37:13;;;;;;;10.90;1.40;;;;;;;11.02;89.45;100274.25;7389936;19;20018;-57
2024/01/22 10:39:48;;;;;;;7.38;1.60;;;;;;;10.92;90.13;100280.31;7394165;19;20386;-57
2024/01/22 10:42:18;;;;;;;4.82;1.40;;;;;;;10.92;89.91;100295.38;7389722;19;20024;-57
2024/01/22 10:44:50;;;;;;;4.63;1.00;;;;;;;10.91;89.21;100267.19;7388198;19;20026;-56
2024/01/22 10:47:19;;;;;;;3.33;1.02;;;;;;;10.97;87.89;100290.53;7390282;19;20018;-57
2024/01/22 10:49:52;;;;;;;5.97;1.20;;;;;;;11.09;87.36;100288.66;7389787;19;20023;-59
2024/01/22 10:52:24;;;;;;;8.18;1.67;;;;;;;10.97;87.04;100296.66;7389319;19;20502;-55
2024/01/22 10:54:55;;;;;;;5.55;1.30;;;;;;;10.98;86.80;100290.38;7390389;19;20035;-54
2024/01/22 10:57:37;;;;;;;9.10;1.70;;;;;;;11.11;86.27;100297.34;7390567;19;20034;-54
2024/01/22 11:00:10;;;;;;;8.80;2.13;;;;;;;11.01;86.11;100310.50;7388253;19;20015;-57
2024/01/22 11:02:48;;;;;;;7.65;1.63;;;;;;;11.04;86.00;100306.78;7389795;19;20017;-56
2024/01/22 11:05:21;;;;;;;8.82;1.90;;;;;;;11.06;86.08;100315.41;7389585;19;20007;-57
2024/01/22 11:07:55;;;;;;;13.93;2.65;;;;;;;11.21;84.99;100299.06;7389650;19;20119;-56
2024/01/22 11:10:25;;;;;;;17.33;3.45;;;;;;;11.42;84.13;100315.00;7387845;19;20613;-54
2024/01/22 11:12:58;;;;;;;10.45;1.88;;;;;;;11.46;83.77;100316.41;7387548;19;20053;-55
2024/01/22 11:15:31;;;;;;;17.80;2.65;;;;;;;11.36;83.75;100302.25;7389464;19;20015;-57
2024/01/22 11:18:02;;;;;;;14.13;2.72;;;;;;;11.34;83.79;100290.94;7389396;19;20023;-57
2024/01/22 11:20:38;;;;;;;15.10;2.75;;;;;;;11.21;83.97;100290.28;7386395;19;20022;-58
2024/01/22 11:23:15;;;;;;;13.20;2.88;;;;;;;11.26;84.18;100311.97;7389020;19;20355;-58
2024/01/22 11:25:45;;;;;;;13.82;2.65;;;;;;;11.32;83.67;100307.94;7389012;19;20520;-58
2024/01/22 11:28:17;;;;;;;14.75;2.70;;;;;;;11.35;83.62;100319.13;7389237;19;20029;-58
2024/01/22 11:30:48;;;;;;;12.77;2.63;;;;;;;11.34;83.37;100325.41;7386489;19;20079;-56
2024/01/22 11:33:25;;;;;;;13.20;2.72;;;;;;;11.34;83.30;100314.81;7390217;19;20018;-56
2024/01/22 11:35:56;;;;;;;11.90;2.67;;;;;;;11.35;82.93;100326.25;7387098;19;20034;-53
2024/01/22 11:38:48;;;;;;;15.38;2.97;;;;;;;11.35;81.80;100332.38;7388707;19;20046;-57
2024/01/22 11:41:32;;;;;;;16.15;3.28;;;;;;;11.29;81.55;100332.06;7385786;19;20546;-56
2024/01/22 11:44:04;;;;;;;16.08;3.28;;;;;;;11.38;81.30;100323.34;7388351;19;20014;-56
2024/01/22 11:46:40;;;;;;;18.58;3.67;;;;;;;11.41;80.61;100337.19;7388329;19;20011;-57
2024/01/22 11:49:11;;;;;;;16.83;3.35;;;;;;;11.32;81.10;100345.91;7388124;19;20014;-57